Sao Joao da Boa Vista, Brazil
Current Conditions -  °F | °C
As of 11:00 AM on Friday 19 Dec 2014 (Local Time) from SBPC Reporting Station
Broken Clouds Broken Clouds  
Wind Chill: 81°   Ceiling: 1700
Heat Index: 83°   Visibility: 6mi
Dew Point: 68°   Wind: 3mph
Humidity: 65%   Direction: 30°NNE
Pressure: 30.03"   Gusts: NA
Location:  21.98°S, 46.79°W
Report Text: SBPC 191300Z 03003KT 9999 BKN017 27/20 Q1017
Loading
Personal Weather Stations






























Interactive Weather Map New forecast layout! Learn more

10-Day Weather Forecast

Advertisements
Track Severe Weather on mobile